Time;durP1;ratioP1;P1;durP2;ratioP2;P2;SDS_P1;SDS_P2;PMS_P1;PMS_P2;Temp;Humidity;BMP_temperature;BMP_pressure;BME280_temperature;BME280_humidity;BME280_pressure;Samples;Min_cycle;Max_cycle;Signal;HPM_P1;HPM_P2
2023/12/31 00:01:18;;;;;;;5.05;4.35;;;10.40;99.90;;;;;;5095049;28;20031;-71
2023/12/31 00:03:44;;;;;;;5.22;4.00;;;10.40;99.90;;;;;;5094415;28;20100;-72
2023/12/31 00:06:09;;;;;;;4.22;3.30;;;10.30;99.90;;;;;;5094631;28;20028;-72
2023/12/31 00:08:35;;;;;;;3.50;3.03;;;10.30;99.90;;;;;;5094826;28;20035;-71
2023/12/31 00:11:01;;;;;;;3.25;2.85;;;10.30;99.90;;;;;;5094643;28;20047;-72
2023/12/31 00:13:26;;;;;;;3.95;2.70;;;10.30;99.90;;;;;;5094932;28;20394;-71
2023/12/31 00:15:52;;;;;;;3.67;3.00;;;10.20;99.90;;;;;;5094558;28;20016;-72
2023/12/31 00:18:18;;;;;;;4.55;3.35;;;10.20;99.90;;;;;;5094220;28;20035;-70
2023/12/31 00:20:43;;;;;;;3.03;2.55;;;10.20;99.90;;;;;;5094350;28;20085;-71
2023/12/31 00:23:11;;;;;;;3.42;2.67;;;10.20;99.90;;;;;;5094343;28;20031;-71
2023/12/31 00:25:38;;;;;;;3.28;2.70;;;10.20;99.90;;;;;;5094264;28;20035;-71
2023/12/31 00:28:03;;;;;;;3.00;2.70;;;10.20;99.90;;;;;;5094724;28;20035;-71
2023/12/31 00:30:29;;;;;;;2.88;2.40;;;10.20;99.90;;;;;;5094160;28;20024;-71
2023/12/31 00:32:55;;;;;;;3.80;2.70;;;10.20;99.90;;;;;;5093947;28;20027;-71
2023/12/31 00:35:21;;;;;;;2.80;2.40;;;10.20;99.90;;;;;;5094340;28;20024;-71
2023/12/31 00:37:47;;;;;;;3.25;2.50;;;10.20;99.90;;;;;;5094274;28;20106;-71
2023/12/31 00:40:13;;;;;;;5.13;2.30;;;10.30;99.90;;;;;;5093636;28;20103;-72
2023/12/31 00:42:39;;;;;;;3.28;2.17;;;10.30;99.90;;;;;;5094117;28;20013;-72
2023/12/31 00:45:06;;;;;;;3.03;2.20;;;10.40;99.90;;;;;;5093930;28;20142;-72
2023/12/31 00:47:31;;;;;;;2.97;2.15;;;10.40;99.90;;;;;;5093545;28;20547;-72
2023/12/31 00:49:58;;;;;;;3.65;2.40;;;10.40;99.90;;;;;;5093869;28;20040;-71
2023/12/31 00:52:24;;;;;;;3.00;2.13;;;10.50;99.90;;;;;;5093920;28;20028;-71
2023/12/31 00:54:50;;;;;;;3.67;2.10;;;10.50;99.90;;;;;;5093718;28;20088;-71
2023/12/31 00:57:17;;;;;;;2.80;2.08;;;10.50;99.90;;;;;;5094026;28;20047;-71
2023/12/31 00:59:42;;;;;;;3.55;2.42;;;10.60;99.90;;;;;;5093765;28;20050;-71
2023/12/31 01:02:08;;;;;;;3.28;2.30;;;10.60;99.90;;;;;;5093345;28;20059;-72
2023/12/31 01:04:36;;;;;;;2.70;2.25;;;10.60;99.90;;;;;;5093652;28;20075;-71
2023/12/31 01:07:01;;;;;;;3.85;2.35;;;10.70;99.90;;;;;;5093522;28;20348;-72
2023/12/31 01:09:27;;;;;;;4.07;2.30;;;10.70;99.90;;;;;;5093569;28;20107;-72
2023/12/31 01:11:53;;;;;;;3.30;2.10;;;10.80;99.90;;;;;;5092530;28;20016;-72
2023/12/31 01:14:18;;;;;;;3.75;2.00;;;10.80;99.90;;;;;;5093352;28;20028;-71
2023/12/31 01:16:44;;;;;;;3.22;2.05;;;10.90;99.90;;;;;;5093046;28;20028;-71
2023/12/31 01:19:09;;;;;;;3.60;2.00;;;10.90;99.90;;;;;;5093482;28;20028;-71
2023/12/31 01:21:35;;;;;;;4.82;2.50;;;10.90;99.90;;;;;;5093478;28;20059;-71
2023/12/31 01:24:01;;;;;;;3.50;2.22;;;10.90;99.90;;;;;;5093233;28;20101;-72
2023/12/31 01:26:27;;;;;;;4.15;2.15;;;10.90;99.90;;;;;;5093220;28;20016;-71
2023/12/31 01:28:52;;;;;;;5.00;2.47;;;10.90;99.90;;;;;;5093233;28;20028;-71
2023/12/31 01:31:19;;;;;;;7.05;2.35;;;11.00;99.90;;;;;;5092800;28;20024;-71
2023/12/31 01:33:45;;;;;;;3.42;2.30;;;11.30;99.90;;;;;;5093031;28;20496;-71
2023/12/31 01:36:15;;;;;;;4.03;2.20;;;11.40;99.90;;;;;;5093412;28;20034;-71
2023/12/31 01:38:41;;;;;;;2.38;2.08;;;11.60;99.90;;;;;;5092975;28;20028;-71
2023/12/31 01:41:08;;;;;;;5.30;2.47;;;11.60;99.90;;;;;;5092749;28;20032;-71
2023/12/31 01:43:37;;;;;;;4.78;2.10;;;11.60;99.90;;;;;;5093387;28;20036;-71
2023/12/31 01:46:05;;;;;;;3.13;2.13;;;11.70;99.90;;;;;;5091656;28;20135;-71
2023/12/31 01:48:31;;;;;;;5.38;2.20;;;11.70;99.90;;;;;;5092903;28;20031;-71
2023/12/31 01:50:57;;;;;;;4.10;2.13;;;11.70;99.90;;;;;;5093136;28;20086;-71
2023/12/31 01:53:23;;;;;;;5.30;2.47;;;11.70;99.90;;;;;;5092811;28;20471;-72
2023/12/31 01:55:50;;;;;;;3.80;2.30;;;11.60;99.90;;;;;;5092727;28;20019;-72
2023/12/31 01:58:16;;;;;;;5.18;2.00;;;11.50;99.90;;;;;;5092607;28;20112;-72
2023/12/31 02:00:42;;;;;;;3.60;2.20;;;11.40;99.90;;;;;;5092180;28;20028;-72
2023/12/31 02:03:08;;;;;;;3.92;2.47;;;11.40;99.90;;;;;;5093007;28;20028;-72
2023/12/31 02:05:35;;;;;;;3.58;2.30;;;11.30;99.90;;;;;;5092430;28;20387;-72
2023/12/31 02:08:01;;;;;;;5.53;2.50;;;11.20;99.90;;;;;;5092433;28;20024;-72
2023/12/31 02:10:27;;;;;;;6.35;2.50;;;11.20;99.90;;;;;;5092618;28;20028;-72
2023/12/31 02:12:53;;;;;;;4.78;2.60;;;11.20;99.90;;;;;;5092456;28;20025;-72
2023/12/31 02:15:35;;;;;;;6.05;2.67;;;11.20;99.90;;;;;;5092126;28;20478;-72
2023/12/31 02:18:02;;;;;;;6.35;2.70;;;11.20;99.90;;;;;;5092429;28;20031;-72
2023/12/31 02:20:31;;;;;;;7.68;3.20;;;11.30;99.90;;;;;;5092173;28;20035;-72
2023/12/31 02:22:59;;;;;;;17.98;5.40;;;11.30;99.90;;;;;;5092282;28;20552;-72
2023/12/31 02:25:27;;;;;;;22.40;5.55;;;11.50;99.90;;;;;;5091966;28;20119;-72
2023/12/31 02:27:54;;;;;;;26.63;5.72;;;11.70;99.90;;;;;;5092304;28;20557;-71
2023/12/31 02:30:21;;;;;;;28.65;5.60;;;11.70;99.90;;;;;;5092315;28;20034;-71
2023/12/31 02:32:46;;;;;;;24.10;5.60;;;11.60;99.90;;;;;;5092285;28;20032;-71
2023/12/31 02:35:12;;;;;;;24.77;5.55;;;11.60;99.90;;;;;;5092203;28;20370;-71
2023/12/31 02:37:37;;;;;;;18.88;4.38;;;11.40;99.90;;;;;;5091800;28;20021;-71
2023/12/31 02:40:04;;;;;;;22.77;5.30;;;11.30;99.90;;;;;;5091847;28;20387;-72
2023/12/31 02:42:30;;;;;;;27.75;5.53;;;11.30;99.90;;;;;;5092434;28;20553;-71
2023/12/31 02:44:56;;;;;;;25.35;5.05;;;11.30;99.90;;;;;;5091209;28;20146;-71
2023/12/31 02:47:22;;;;;;;26.30;5.40;;;11.30;99.90;;;;;;5092419;28;20103;-70
2023/12/31 02:49:47;;;;;;;25.52;5.88;;;11.30;99.90;;;;;;5092054;28;20024;-71
2023/12/31 02:52:15;;;;;;;24.83;5.13;;;11.30;99.90;;;;;;5092036;28;20032;-71
2023/12/31 02:54:41;;;;;;;22.80;5.25;;;11.30;99.90;;;;;;5092146;28;20024;-71
2023/12/31 02:57:09;;;;;;;23.70;6.20;;;11.30;99.90;;;;;;5092279;28;20474;-71
2023/12/31 02:59:35;;;;;;;27.05;5.40;;;11.30;99.90;;;;;;5094304;28;20509;-71
2023/12/31 03:02:02;;;;;;;24.35;5.75;;;11.30;99.90;;;;;;5096054;28;20452;-71
2023/12/31 03:04:28;;;;;;;22.55;5.13;;;11.30;99.90;;;;;;5095937;28;20059;-71
2023/12/31 03:06:53;;;;;;;21.77;5.32;;;11.30;99.90;;;;;;5096006;28;20028;-71
2023/12/31 03:09:21;;;;;;;20.33;5.30;;;11.20;99.90;;;;;;5096002;28;20032;-71
2023/12/31 03:11:47;;;;;;;21.35;4.18;;;11.10;99.90;;;;;;5095812;28;20039;-71
2023/12/31 03:14:14;;;;;;;16.83;4.53;;;11.00;99.90;;;;;;5095485;28;20016;-71
2023/12/31 03:16:46;;;;;;;22.60;4.50;;;11.00;99.90;;;;;;5096121;28;20486;-71
2023/12/31 03:19:16;;;;;;;21.67;4.63;;;10.90;99.90;;;;;;5095435;28;20069;-71
2023/12/31 03:21:42;;;;;;;20.05;4.57;;;11.00;99.90;;;;;;5096021;28;20032;-71
2023/12/31 03:24:08;;;;;;;19.17;4.47;;;11.20;99.90;;;;;;5095001;28;20555;-71
2023/12/31 03:26:34;;;;;;;18.80;5.05;;;11.40;99.90;;;;;;5096144;28;20512;-71
2023/12/31 03:29:01;;;;;;;19.30;4.93;;;11.50;99.90;;;;;;5095017;28;20496;-71
2023/12/31 03:31:27;;;;;;;25.52;5.55;;;11.70;99.90;;;;;;5095411;28;20497;-71
2023/12/31 03:33:52;;;;;;;19.90;4.95;;;12.00;99.90;;;;;;5095450;28;20024;-71
2023/12/31 03:36:18;;;;;;;20.48;5.05;;;12.10;99.90;;;;;;5095746;28;20027;-70
2023/12/31 03:38:44;;;;;;;22.58;4.90;;;11.90;99.90;;;;;;5095173;28;20031;-71
2023/12/31 03:41:09;;;;;;;25.00;4.93;;;11.90;99.90;;;;;;5094778;28;20097;-70
2023/12/31 03:43:35;;;;;;;24.17;5.53;;;11.80;99.90;;;;;;5095376;28;20032;-71
2023/12/31 03:46:01;;;;;;;24.88;5.80;;;11.50;99.90;;;;;;5095123;28;20499;-71
2023/12/31 03:48:27;;;;;;;25.52;5.18;;;11.40;99.90;;;;;;5095274;28;20027;-71
2023/12/31 03:50:52;;;;;;;23.83;5.60;;;11.20;99.90;;;;;;5095277;28;20024;-71
2023/12/31 03:53:18;;;;;;;23.27;4.88;;;11.10;99.90;;;;;;5095320;28;20032;-72
2023/12/31 03:55:44;;;;;;;23.08;4.97;;;11.10;99.90;;;;;;5094754;28;20569;-71
2023/12/31 03:58:10;;;;;;;20.25;4.55;;;11.00;99.90;;;;;;5094861;28;20020;-71
2023/12/31 04:00:36;;;;;;;21.30;5.05;;;11.00;99.90;;;;;;5094887;28;20513;-71
2023/12/31 04:03:03;;;;;;;19.40;3.92;;;11.00;99.90;;;;;;5094886;28;20514;-71
2023/12/31 04:05:29;;;;;;;20.02;4.45;;;11.00;99.90;;;;;;5095149;28;20047;-71
2023/12/31 04:07:55;;;;;;;22.83;4.82;;;11.00;99.90;;;;;;5094649;28;20054;-71
2023/12/31 04:10:21;;;;;;;19.30;4.47;;;11.00;99.90;;;;;;5093851;28;20028;-70
2023/12/31 04:12:46;;;;;;;20.63;4.95;;;11.00;99.90;;;;;;5094647;28;20123;-71
2023/12/31 04:15:12;;;;;;;22.55;4.35;;;10.90;99.90;;;;;;5094699;28;20077;-71
2023/12/31 04:17:38;;;;;;;19.60;4.07;;;10.90;99.90;;;;;;5094518;28;20027;-71
2023/12/31 04:20:05;;;;;;;25.48;5.45;;;10.90;99.90;;;;;;5094499;28;20028;-71
2023/12/31 04:22:31;;;;;;;20.63;4.93;;;10.90;99.90;;;;;;5094522;28;20126;-71
2023/12/31 04:24:57;;;;;;;24.98;5.22;;;10.90;99.90;;;;;;5094030;28;20286;-71
2023/12/31 04:27:22;;;;;;;21.17;5.03;;;10.90;99.90;;;;;;5094420;28;20024;-71
2023/12/31 04:29:48;;;;;;;27.95;5.07;;;10.90;99.90;;;;;;5093185;28;20029;-70
2023/12/31 04:32:14;;;;;;;18.27;4.30;;;10.90;99.90;;;;;;5094236;28;20024;-70
2023/12/31 04:34:39;;;;;;;17.08;4.35;;;10.80;99.90;;;;;;5094745;28;20028;-71
2023/12/31 04:37:05;;;;;;;15.60;3.60;;;10.80;99.90;;;;;;5094131;28;20020;-71
2023/12/31 04:39:30;;;;;;;19.13;4.63;;;10.80;99.90;;;;;;5093801;28;20036;-70
2023/12/31 04:41:56;;;;;;;23.10;5.07;;;10.80;99.90;;;;;;5094067;28;20024;-71
2023/12/31 04:44:22;;;;;;;27.20;5.43;;;10.80;99.90;;;;;;5093953;28;20043;-71
2023/12/31 04:46:47;;;;;;;21.85;5.10;;;10.80;99.90;;;;;;5093788;28;20060;-71
2023/12/31 04:49:14;;;;;;;20.17;4.90;;;10.80;99.90;;;;;;5094535;28;20074;-71
2023/12/31 04:51:40;;;;;;;18.92;4.72;;;10.80;99.90;;;;;;5093878;28;20042;-71
2023/12/31 04:54:06;;;;;;;22.02;4.90;;;10.80;99.90;;;;;;5093436;28;20114;-71
2023/12/31 04:56:31;;;;;;;27.83;5.35;;;10.90;99.90;;;;;;5094357;28;20032;-72
2023/12/31 04:58:58;;;;;;;24.80;5.43;;;10.90;99.90;;;;;;5093673;28;20474;-71
2023/12/31 05:01:27;;;;;;;26.02;5.90;;;10.90;99.90;;;;;;5093688;28;20029;-71
2023/12/31 05:03:52;;;;;;;31.02;6.88;;;10.90;99.90;;;;;;5093553;28;20028;-71
2023/12/31 05:06:18;;;;;;;25.23;6.20;;;11.00;99.90;;;;;;5093591;28;20158;-70
2023/12/31 05:08:45;;;;;;;24.48;5.28;;;11.00;99.90;;;;;;5093663;28;20020;-71
2023/12/31 05:11:14;;;;;;;21.20;4.68;;;11.20;99.90;;;;;;5093439;28;20114;-70
2023/12/31 05:13:41;;;;;;;18.42;4.95;;;11.40;99.90;;;;;;5093622;28;20043;-70
2023/12/31 05:16:09;;;;;;;22.33;5.07;;;11.40;99.90;;;;;;5093456;28;20026;-70
2023/12/31 05:18:34;;;;;;;21.73;5.15;;;11.50;99.90;;;;;;5093385;28;20066;-70
2023/12/31 05:21:01;;;;;;;20.65;5.25;;;11.50;99.90;;;;;;5092700;28;20048;-70
2023/12/31 05:23:27;;;;;;;19.67;4.85;;;11.70;99.90;;;;;;5092818;28;20028;-71
2023/12/31 05:25:53;;;;;;;23.02;4.70;;;11.60;99.90;;;;;;5093218;28;20119;-70
2023/12/31 05:28:19;;;;;;;27.27;6.00;;;11.60;99.90;;;;;;5093201;28;20023;-70
2023/12/31 05:30:45;;;;;;;28.73;6.05;;;11.50;99.90;;;;;;5093515;28;20032;-71
2023/12/31 05:33:11;;;;;;;31.65;6.38;;;11.20;99.90;;;;;;5093043;28;20031;-71
2023/12/31 05:35:37;;;;;;;33.05;6.15;;;11.10;99.90;;;;;;5093464;28;20035;-70
2023/12/31 05:38:02;;;;;;;38.38;6.57;;;11.00;99.90;;;;;;5092883;28;20020;-70
2023/12/31 05:40:28;;;;;;;30.27;6.50;;;11.00;99.90;;;;;;5092817;28;20028;-70
2023/12/31 05:42:54;;;;;;;29.98;6.47;;;10.90;99.90;;;;;;5092909;28;20032;-70
2023/12/31 05:45:20;;;;;;;36.63;6.97;;;10.80;99.90;;;;;;5092676;28;20055;-70
2023/12/31 05:47:46;;;;;;;28.30;6.28;;;10.80;99.90;;;;;;5092698;28;20043;-71
2023/12/31 05:50:12;;;;;;;30.83;6.82;;;10.80;99.90;;;;;;5093039;28;20454;-70
2023/12/31 05:52:38;;;;;;;24.23;5.93;;;10.80;99.90;;;;;;5092511;28;20042;-70
2023/12/31 05:55:04;;;;;;;22.27;5.35;;;10.80;99.90;;;;;;5092695;28;20020;-70
2023/12/31 05:57:29;;;;;;;22.33;5.50;;;10.80;99.90;;;;;;5092732;28;20137;-71
2023/12/31 05:59:55;;;;;;;19.90;4.57;;;10.90;99.90;;;;;;5092891;28;20390;-71
2023/12/31 06:02:21;;;;;;;17.27;4.45;;;10.90;99.90;;;;;;5092628;28;20398;-71
2023/12/31 06:04:46;;;;;;;17.50;3.70;;;10.90;99.90;;;;;;5092520;28;20036;-71
2023/12/31 06:07:12;;;;;;;12.82;3.63;;;10.90;99.90;;;;;;5092105;28;20028;-71
2023/12/31 06:09:38;;;;;;;14.43;3.60;;;10.90;99.90;;;;;;5092487;28;20039;-71
2023/12/31 06:12:04;;;;;;;12.98;3.30;;;10.90;99.90;;;;;;5092798;28;20035;-71
2023/12/31 06:14:29;;;;;;;17.48;3.90;;;10.90;99.90;;;;;;5092559;28;20493;-71
2023/12/31 06:16:55;;;;;;;16.88;3.92;;;10.90;99.90;;;;;;5091138;28;20032;-71
2023/12/31 06:19:21;;;;;;;16.25;4.32;;;10.90;99.90;;;;;;5092301;28;20035;-71
2023/12/31 06:21:46;;;;;;;17.23;4.13;;;10.90;99.90;;;;;;5092057;28;20032;-71
2023/12/31 06:24:12;;;;;;;17.35;4.78;;;10.90;99.90;;;;;;5092235;28;20022;-71
2023/12/31 06:26:38;;;;;;;17.80;5.00;;;10.90;99.90;;;;;;5092754;28;20482;-71
2023/12/31 06:29:03;;;;;;;28.48;6.03;;;10.90;99.90;;;;;;5092252;28;20023;-71
2023/12/31 06:31:29;;;;;;;24.77;5.70;;;10.90;99.90;;;;;;5092106;28;20533;-71
2023/12/31 06:33:55;;;;;;;26.52;6.18;;;11.00;99.90;;;;;;5091981;28;20055;-72
2023/12/31 06:36:20;;;;;;;27.17;5.88;;;11.00;99.90;;;;;;5092232;28;20432;-71
2023/12/31 06:38:46;;;;;;;24.45;6.05;;;11.00;99.90;;;;;;5092042;28;20473;-71
2023/12/31 06:41:11;;;;;;;27.58;6.47;;;11.00;99.90;;;;;;5092125;28;20032;-72
2023/12/31 06:43:38;;;;;;;32.40;6.70;;;11.00;99.90;;;;;;5092205;28;20071;-71
2023/12/31 06:46:04;;;;;;;34.55;6.65;;;11.00;99.90;;;;;;5091649;28;20044;-71
2023/12/31 06:48:30;;;;;;;31.15;7.18;;;11.00;99.90;;;;;;5092032;28;20016;-71
2023/12/31 06:50:56;;;;;;;25.55;6.43;;;11.00;99.90;;;;;;5091881;28;20040;-71
2023/12/31 06:53:23;;;;;;;23.92;5.35;;;11.00;99.90;;;;;;5092035;28;20021;-71
2023/12/31 06:55:49;;;;;;;23.00;5.65;;;11.10;99.90;;;;;;5092071;28;20028;-72
2023/12/31 06:58:16;;;;;;;25.55;5.38;;;11.10;99.90;;;;;;5091999;28;20108;-71
2023/12/31 07:00:41;;;;;;;17.85;4.70;;;11.10;99.90;;;;;;5091764;28;20024;-71
2023/12/31 07:03:07;;;;;;;19.15;4.50;;;11.30;99.90;;;;;;5092013;28;20020;-71
2023/12/31 07:05:33;;;;;;;19.10;4.50;;;11.50;99.90;;;;;;5091608;28;20058;-71
2023/12/31 07:07:58;;;;;;;17.45;4.68;;;11.80;99.90;;;;;;5092175;28;20038;-71
2023/12/31 07:10:24;;;;;;;17.38;4.72;;;11.80;99.90;;;;;;5091598;28;20119;-71
2023/12/31 07:12:50;;;;;;;19.90;5.25;;;11.90;99.90;;;;;;5092033;28;20099;-71
2023/12/31 07:15:16;;;;;;;17.42;5.22;;;12.00;99.90;;;;;;5091807;28;20028;-70
2023/12/31 07:17:42;;;;;;;25.38;5.80;;;12.10;99.90;;;;;;5091014;28;20486;-70
2023/12/31 07:20:08;;;;;;;23.38;5.07;;;12.20;99.90;;;;;;5091395;28;20080;-71
2023/12/31 07:22:34;;;;;;;25.67;6.30;;;12.10;99.90;;;;;;5091729;28;20104;-71
2023/12/31 07:25:00;;;;;;;28.58;6.50;;;12.00;99.90;;;;;;5091629;28;20163;-71
2023/12/31 07:27:26;;;;;;;28.02;7.13;;;11.80;99.90;;;;;;5091719;28;20031;-71
2023/12/31 07:29:52;;;;;;;24.10;6.65;;;11.60;99.90;;;;;;5091636;28;20052;-70
2023/12/31 07:32:18;;;;;;;31.88;7.03;;;11.60;99.90;;;;;;5091751;28;20062;-71
2023/12/31 07:34:44;;;;;;;28.10;6.28;;;11.50;99.90;;;;;;5091184;28;20020;-71
2023/12/31 07:37:09;;;;;;;26.75;6.53;;;11.40;99.90;;;;;;5091643;28;20035;-71
2023/12/31 07:39:35;;;;;;;27.05;6.32;;;11.40;99.90;;;;;;5091609;28;20470;-71
2023/12/31 07:42:03;;;;;;;25.88;6.47;;;11.40;99.90;;;;;;5091406;28;20028;-71
2023/12/31 07:44:29;;;;;;;23.48;5.55;;;11.40;99.90;;;;;;5092695;28;20043;-71
2023/12/31 07:46:56;;;;;;;26.75;6.30;;;11.30;99.90;;;;;;5095062;28;20502;-71
2023/12/31 07:49:22;;;;;;;22.27;5.70;;;11.40;99.90;;;;;;5094735;28;20461;-71
2023/12/31 07:51:48;;;;;;;35.58;7.15;;;11.40;99.90;;;;;;5095160;28;20108;-71
2023/12/31 07:54:13;;;;;;;25.00;5.38;;;11.40;99.90;;;;;;5095002;28;20406;-71
2023/12/31 07:56:41;;;;;;;22.45;5.90;;;11.40;99.90;;;;;;5095080;28;20024;-71
2023/12/31 07:59:06;;;;;;;22.75;6.05;;;11.50;99.90;;;;;;5094819;28;20101;-71
2023/12/31 08:01:32;;;;;;;20.70;5.60;;;11.50;99.90;;;;;;5095376;28;20478;-71
2023/12/31 08:03:58;;;;;;;22.75;5.20;;;11.50;99.90;;;;;;5094515;28;20484;-71
2023/12/31 08:06:23;;;;;;;22.35;5.35;;;11.50;99.90;;;;;;5093595;28;20044;-73
2023/12/31 08:08:49;;;;;;;21.13;5.25;;;11.60;99.90;;;;;;5094797;28;20019;-73
2023/12/31 08:11:15;;;;;;;22.30;5.32;;;11.60;99.90;;;;;;5094799;28;20390;-73
2023/12/31 08:13:41;;;;;;;19.33;5.28;;;11.60;99.90;;;;;;5095026;28;20024;-73
2023/12/31 08:16:07;;;;;;;27.25;6.07;;;11.50;99.90;;;;;;5094620;28;20061;-73
2023/12/31 08:18:34;;;;;;;23.50;6.15;;;11.60;99.90;;;;;;5093033;28;20081;-73
2023/12/31 08:21:00;;;;;;;26.83;6.38;;;11.60;99.90;;;;;;5094625;28;20489;-73
2023/12/31 08:23:26;;;;;;;25.20;6.10;;;11.60;99.90;;;;;;5094768;28;20030;-71
2023/12/31 08:25:51;;;;;;;23.70;5.53;;;11.60;99.90;;;;;;5094550;28;20093;-71
2023/12/31 08:28:17;;;;;;;17.35;3.92;;;11.60;99.90;;;;;;5094290;28;20421;-71
2023/12/31 08:30:43;;;;;;;12.70;3.45;;;11.30;99.90;;;;;;5094854;28;20395;-71
2023/12/31 08:33:08;;;;;;;12.57;3.47;;;11.20;99.90;;;;;;5093986;28;20124;-71
2023/12/31 08:35:34;;;;;;;10.20;2.80;;;11.00;99.90;;;;;;5094305;28;20394;-71
2023/12/31 08:38:00;;;;;;;12.07;2.80;;;10.90;99.90;;;;;;5094238;28;20024;-71
2023/12/31 08:40:25;;;;;;;11.02;3.03;;;10.90;99.90;;;;;;5094091;28;20040;-72
2023/12/31 08:42:51;;;;;;;18.27;3.95;;;10.90;99.90;;;;;;5094050;28;20028;-72
2023/12/31 08:45:17;;;;;;;17.40;4.55;;;11.00;99.90;;;;;;5094023;28;20577;-72
2023/12/31 08:47:44;;;;;;;18.13;4.55;;;11.00;99.90;;;;;;5094117;28;20043;-72
2023/12/31 08:50:11;;;;;;;19.05;5.13;;;11.10;99.90;;;;;;5093943;28;20055;-72
2023/12/31 08:52:43;;;;;;;21.83;4.55;;;11.20;99.90;;;;;;5093962;28;20065;-72
2023/12/31 08:55:09;;;;;;;19.73;3.95;;;11.30;99.90;;;;;;5093886;28;20034;-72
2023/12/31 08:57:36;;;;;;;16.90;3.50;;;11.40;99.90;;;;;;5093921;28;20452;-72
2023/12/31 09:00:03;;;;;;;17.92;3.70;;;11.70;99.90;;;;;;5093679;28;20402;-72
2023/12/31 09:02:28;;;;;;;15.43;3.75;;;11.70;99.90;;;;;;5093401;28;20378;-72
2023/12/31 09:04:54;;;;;;;12.65;2.90;;;11.80;99.90;;;;;;5094078;28;20032;-72
2023/12/31 09:07:20;;;;;;;13.82;3.40;;;11.80;99.90;;;;;;5093731;28;20371;-72
2023/12/31 09:09:46;;;;;;;13.48;3.13;;;11.80;99.90;;;;;;5093635;28;20410;-72
2023/12/31 09:12:11;;;;;;;11.50;3.10;;;11.70;99.90;;;;;;5093547;28;20028;-73
2023/12/31 09:14:37;;;;;;;9.57;3.33;;;11.60;99.90;;;;;;5093726;28;20039;-73
2023/12/31 09:17:02;;;;;;;10.93;3.15;;;11.50;99.90;;;;;;5093256;28;20381;-72
2023/12/31 09:19:28;;;;;;;15.55;4.10;;;11.30;99.90;;;;;;5093780;28;20497;-73
2023/12/31 09:21:54;;;;;;;16.38;4.43;;;11.20;99.90;;;;;;5093459;28;20103;-73
2023/12/31 09:24:19;;;;;;;14.10;4.20;;;11.10;99.90;;;;;;5093121;28;20024;-73
2023/12/31 09:26:45;;;;;;;14.00;4.13;;;11.00;99.90;;;;;;5093650;28;20032;-72
2023/12/31 09:29:10;;;;;;;15.80;3.80;;;11.00;99.90;;;;;;5092969;28;20099;-71
2023/12/31 09:31:37;;;;;;;16.42;4.57;;;11.00;99.90;;;;;;5093245;28;20032;-71
2023/12/31 09:34:03;;;;;;;19.30;4.20;;;11.00;99.90;;;;;;5093228;28;20012;-71
2023/12/31 09:36:28;;;;;;;14.98;3.70;;;11.00;99.90;;;;;;5074863;28;20023;-71
2023/12/31 09:38:54;;;;;;;15.95;4.13;;;11.00;99.90;;;;;;5093103;28;20105;-77
2023/12/31 09:41:24;;;;;;;19.40;5.20;;;11.00;99.90;;;;;;5093047;28;20026;-77
2023/12/31 09:43:55;;;;;;;24.25;6.18;;;11.00;99.90;;;;;;5092855;28;20042;-72
2023/12/31 09:46:22;;;;;;;18.42;4.35;;;11.00;99.90;;;;;;5092788;28;20055;-72
2023/12/31 09:48:51;;;;;;;19.48;4.15;;;11.00;99.90;;;;;;5093079;28;20050;-72
2023/12/31 09:51:18;;;;;;;19.45;4.15;;;11.00;99.90;;;;;;5093078;28;20048;-72
2023/12/31 09:53:45;;;;;;;15.30;3.88;;;11.00;99.90;;;;;;5092982;28;20028;-72
2023/12/31 09:56:12;;;;;;;22.83;4.50;;;11.00;99.90;;;;;;5092702;28;20012;-72
2023/12/31 09:58:38;;;;;;;16.77;4.25;;;10.90;99.90;;;;;;5092498;28;20028;-72
2023/12/31 10:01:04;;;;;;;17.50;4.15;;;10.90;99.90;;;;;;5093370;28;20500;-72
2023/12/31 10:03:30;;;;;;;20.77;4.53;;;11.00;99.90;;;;;;5092668;28;20107;-73
2023/12/31 10:05:56;;;;;;;16.98;4.22;;;11.00;99.90;;;;;;5092578;28;20048;-72
2023/12/31 10:08:23;;;;;;;17.27;4.35;;;11.00;99.90;;;;;;5092180;28;20024;-72
2023/12/31 10:10:53;;;;;;;14.43;4.47;;;11.00;99.90;;;;;;5092579;28;20027;-73
2023/12/31 10:13:19;;;;;;;17.23;3.92;;;11.10;99.90;;;;;;5092490;28;20130;-72
2023/12/31 10:15:46;;;;;;;17.98;4.85;;;11.10;99.90;;;;;;5092372;28;20032;-73
2023/12/31 10:18:12;;;;;;;17.70;4.38;;;11.20;99.90;;;;;;5092392;28;20024;-72
2023/12/31 10:20:38;;;;;;;16.75;4.45;;;11.20;99.90;;;;;;5092846;28;20055;-73
2023/12/31 10:23:04;;;;;;;15.88;3.53;;;11.30;99.90;;;;;;5092521;28;20024;-72
2023/12/31 10:25:30;;;;;;;11.60;2.72;;;11.30;99.90;;;;;;5092358;28;20405;-72
2023/12/31 10:27:56;;;;;;;10.50;2.80;;;11.30;99.90;;;;;;5092424;28;20028;-72
2023/12/31 10:30:23;;;;;;;11.77;2.78;;;11.40;99.90;;;;;;5092402;28;20102;-73
2023/12/31 10:32:49;;;;;;;9.45;2.50;;;11.30;99.90;;;;;;5092363;28;20020;-72
2023/12/31 10:35:20;;;;;;;6.40;2.30;;;11.40;99.90;;;;;;5092333;28;20485;-73
2023/12/31 10:37:46;;;;;;;7.60;2.40;;;11.40;99.90;;;;;;5092123;28;20116;-72
2023/12/31 10:40:22;;;;;;;10.25;2.60;;;11.60;99.90;;;;;;5092656;28;20036;-73
2023/12/31 10:42:51;;;;;;;6.32;1.98;;;11.90;99.90;;;;;;5091758;28;20024;-72
2023/12/31 10:45:20;;;;;;;8.40;2.45;;;12.10;99.90;;;;;;5092210;28;20062;-72
2023/12/31 10:47:50;;;;;;;6.97;2.30;;;12.30;99.90;;;;;;5092502;28;20028;-72
2023/12/31 10:50:20;;;;;;;13.30;2.97;;;12.30;99.90;;;;;;5092256;28;20016;-72
2023/12/31 10:52:49;;;;;;;9.30;2.75;;;12.30;99.90;;;;;;5092044;28;20024;-72
2023/12/31 10:55:16;;;;;;;12.27;3.05;;;12.50;99.90;;;;;;5092108;28;20024;-72
2023/12/31 10:57:42;;;;;;;7.80;2.30;;;12.40;99.90;;;;;;5090505;28;20032;-73
2023/12/31 11:00:11;;;;;;;10.13;2.90;;;12.40;99.90;;;;;;5092081;28;20016;-73
2023/12/31 11:02:37;;;;;;;12.30;3.00;;;12.30;99.90;;;;;;5092178;28;20059;-73
2023/12/31 11:05:05;;;;;;;11.93;2.95;;;12.10;99.90;;;;;;5090642;28;20032;-73
2023/12/31 11:07:34;;;;;;;12.35;3.00;;;12.00;99.90;;;;;;5091861;28;20039;-73
2023/12/31 11:09:59;;;;;;;14.63;3.63;;;12.00;99.90;;;;;;5092083;28;20020;-73
2023/12/31 11:12:27;;;;;;;13.52;3.47;;;11.90;99.90;;;;;;5091890;28;20600;-72
2023/12/31 11:15:09;;;;;;;11.10;3.17;;;11.80;99.90;;;;;;5092053;28;20099;-73
2023/12/31 11:18:12;;;;;;;11.88;3.35;;;11.80;99.90;;;;;;5091845;28;20032;-73
2023/12/31 11:21:10;;;;;;;9.65;3.05;;;11.80;99.90;;;;;;5094519;28;20012;-73
2023/12/31 11:23:43;;;;;;;11.32;2.97;;;11.70;99.90;;;;;;5095304;28;20044;-73
2023/12/31 11:26:11;;;;;;;12.13;2.53;;;11.70;99.90;;;;;;5095273;28;20120;-73
2023/12/31 11:28:36;;;;;;;10.43;2.78;;;11.70;99.90;;;;;;5095586;28;20036;-72
2023/12/31 11:31:09;;;;;;;14.05;3.30;;;11.70;99.90;;;;;;5095946;28;20028;-73
2023/12/31 11:33:35;;;;;;;9.65;3.35;;;11.70;99.90;;;;;;5095370;28;20024;-73
2023/12/31 11:36:13;;;;;;;11.98;3.50;;;11.70;99.90;;;;;;5095262;28;20456;-73
2023/12/31 11:38:58;;;;;;;10.80;2.92;;;11.70;99.90;;;;;;5095802;28;20478;-73
2023/12/31 11:41:25;;;;;;;9.40;3.00;;;11.70;99.90;;;;;;5095001;28;20028;-73
2023/12/31 11:43:51;;;;;;;10.65;3.10;;;11.70;99.90;;;;;;5095484;28;20028;-73
2023/12/31 11:46:37;;;;;;;10.70;3.05;;;11.70;99.90;;;;;;5094966;28;20052;-73
2023/12/31 11:49:07;;;;;;;11.60;3.00;;;11.70;99.90;;;;;;5095452;28;20016;-73
2023/12/31 11:51:52;;;;;;;11.65;2.90;;;11.70;99.90;;;;;;5095153;28;20027;-73
2023/12/31 11:54:20;;;;;;;14.43;3.55;;;11.80;99.90;;;;;;5095122;28;20093;-73
2023/12/31 11:56:46;;;;;;;10.98;3.00;;;11.70;99.90;;;;;;5095117;28;20575;-73
2023/12/31 11:59:12;;;;;;;8.90;2.70;;;11.70;99.90;;;;;;5095000;28;20043;-73
2023/12/31 12:01:45;;;;;;;14.55;3.35;;;11.80;99.90;;;;;;5095160;28;20533;-73
2023/12/31 12:04:11;;;;;;;15.50;3.15;;;12.00;99.90;;;;;;5095315;28;20447;-73
2023/12/31 12:06:38;;;;;;;11.90;3.25;;;12.00;99.90;;;;;;5094755;28;20051;-73
2023/12/31 12:09:05;;;;;;;13.75;3.28;;;12.00;99.90;;;;;;5094537;28;20047;-73
2023/12/31 12:11:32;;;;;;;12.98;3.13;;;12.10;99.90;;;;;;5095180;28;20402;-73
2023/12/31 12:13:59;;;;;;;15.38;3.75;;;12.00;99.90;;;;;;5094757;28;20466;-72
2023/12/31 12:16:28;;;;;;;12.45;3.15;;;11.90;99.90;;;;;;5094829;28;20017;-72
2023/12/31 12:19:00;;;;;;;18.20;4.18;;;11.80;99.90;;;;;;5094326;28;20085;-72
2023/12/31 12:21:26;;;;;;;18.60;3.75;;;11.80;99.90;;;;;;5094928;28;20028;-72
2023/12/31 12:23:53;;;;;;;16.90;4.28;;;11.80;99.90;;;;;;5094179;28;20032;-71
2023/12/31 12:26:22;;;;;;;24.17;4.82;;;11.90;99.90;;;;;;5094427;28;20028;-71
2023/12/31 12:28:55;;;;;;;15.02;4.10;;;12.30;99.90;;;;;;5094372;28;20024;-72
2023/12/31 12:31:21;;;;;;;13.15;3.60;;;12.60;99.90;;;;;;5094103;28;20110;-72
2023/12/31 12:33:54;;;;;;;15.48;3.90;;;12.80;99.90;;;;;;5094693;28;20028;-72
2023/12/31 12:36:21;;;;;;;13.68;3.28;;;12.80;99.90;;;;;;5094161;28;20035;-72